createdAt,value
2018-10-16T00:00:22.438Z,15.13
2018-10-16T00:02:51.674Z,12.93
2018-10-16T00:05:20.740Z,11.77
2018-10-16T00:07:49.968Z,14.80
2018-10-16T00:10:25.977Z,12.70
2018-10-16T00:12:55.068Z,12.53
2018-10-16T00:15:24.414Z,12.83
2018-10-16T00:17:53.701Z,14.00
2018-10-16T00:20:23.624Z,12.43
2018-10-16T00:22:53.459Z,14.00
2018-10-16T00:25:23.251Z,18.87
2018-10-16T00:27:52.335Z,12.33
2018-10-16T00:30:21.562Z,15.43
2018-10-16T00:32:51.385Z,16.03
2018-10-16T00:35:20.678Z,17.73
2018-10-16T00:37:50.601Z,13.57
2018-10-16T00:40:20.435Z,14.80
2018-10-16T00:42:50.820Z,17.10
2018-10-16T00:45:21.270Z,17.53
2018-10-16T00:47:50.660Z,20.20
2018-10-16T00:50:21.041Z,14.33
2018-10-16T00:52:51.006Z,20.10
2018-10-16T00:55:20.258Z,16.70
2018-10-16T00:57:50.080Z,13.73
2018-10-16T01:00:19.417Z,18.73
2018-10-16T01:02:49.699Z,15.80
2018-10-16T01:05:18.941Z,15.60
2018-10-16T01:07:48.057Z,17.13
2018-10-16T01:10:17.369Z,15.70
2018-10-16T01:12:46.769Z,15.23
2018-10-16T01:15:15.847Z,15.43
2018-10-16T01:17:44.973Z,14.63
2018-10-16T01:20:14.769Z,14.63
2018-10-16T01:22:44.307Z,14.37
2018-10-16T01:25:14.068Z,12.73
2018-10-16T01:27:43.931Z,15.07
2018-10-16T01:30:13.952Z,17.37
2018-10-16T01:32:44.648Z,15.30
2018-10-16T01:35:15.335Z,20.13
2018-10-16T01:37:44.584Z,17.60
2018-10-16T01:40:14.401Z,14.53
2018-10-16T01:42:45.333Z,17.57
2018-10-16T01:45:15.528Z,13.80
2018-10-16T01:47:45.679Z,17.80
2018-10-16T01:50:15.320Z,17.23
2018-10-16T01:52:44.750Z,18.07
2018-10-16T01:55:15.393Z,18.03
2018-10-16T01:57:45.584Z,15.77
2018-10-16T02:00:15.080Z,17.10
2018-10-16T02:02:45.891Z,15.97
2018-10-16T02:05:15.692Z,14.90
2018-10-16T02:07:45.664Z,15.20
2018-10-16T02:10:16.100Z,14.37
2018-10-16T02:12:46.280Z,17.63
2018-10-16T02:15:16.206Z,15.03
2018-10-16T02:17:46.781Z,15.33
2018-10-16T02:20:17.079Z,13.17
2018-10-16T02:22:47.025Z,18.23
2018-10-16T02:25:17.641Z,16.33
2018-10-16T02:27:47.446Z,14.93
2018-10-16T02:30:16.721Z,17.67
2018-10-16T02:32:47.142Z,16.77
2018-10-16T02:35:16.442Z,14.77
2018-10-16T02:37:46.765Z,15.13
2018-10-16T02:40:16.125Z,16.87
2018-10-16T02:42:45.832Z,15.97
2018-10-16T02:45:15.171Z,16.80
2018-10-16T02:47:44.280Z,13.90
2018-10-16T02:50:14.059Z,13.60
2018-10-16T02:52:43.164Z,13.83
2018-10-16T02:55:12.403Z,14.70
2018-10-16T02:57:41.529Z,12.90
2018-10-16T03:00:10.725Z,19.60
2018-10-16T03:02:40.700Z,16.53
2018-10-16T03:05:10.786Z,14.40
2018-10-16T03:07:40.238Z,14.87
2018-10-16T03:10:10.072Z,14.03
2018-10-16T03:12:39.797Z,14.87
2018-10-16T03:15:11.846Z,14.37
2018-10-16T03:17:41.383Z,14.70
2018-10-16T03:20:11.886Z,16.03
2018-10-16T03:22:41.478Z,16.70
2018-10-16T03:25:12.191Z,13.40
2018-10-16T03:27:42.345Z,14.13
2018-10-16T03:30:12.513Z,13.80
2018-10-16T03:32:42.033Z,17.40
2018-10-16T03:35:12.477Z,17.00
2018-10-16T03:37:42.742Z,16.83
2018-10-16T03:40:12.574Z,22.60
2018-10-16T03:42:42.515Z,15.27
2018-10-16T03:45:13.312Z,14.30
2018-10-16T03:47:43.362Z,14.93
2018-10-16T03:50:12.545Z,16.03
2018-10-16T03:52:42.425Z,16.10
2018-10-16T03:55:11.779Z,17.00
2018-10-16T03:57:42.342Z,19.23
2018-10-16T04:00:12.596Z,16.90
2018-10-16T04:02:42.449Z,20.80
2018-10-16T04:05:12.325Z,20.20
2018-10-16T04:07:42.957Z,16.00
2018-10-16T04:10:12.798Z,17.80
2018-10-16T04:12:43.100Z,22.93
2018-10-16T04:15:13.240Z,18.80
2018-10-16T04:17:42.611Z,20.30
2018-10-16T04:20:13.118Z,18.17
2018-10-16T04:22:43.707Z,21.10
2018-10-16T04:25:13.691Z,17.20
2018-10-16T04:27:43.301Z,20.60
2018-10-16T04:30:13.767Z,20.07
2018-10-16T04:32:43.913Z,17.60
2018-10-16T04:35:15.521Z,20.83
2018-10-16T04:37:46.109Z,19.80
2018-10-16T04:40:15.801Z,17.13
2018-10-16T04:42:46.580Z,17.83
2018-10-16T04:45:15.920Z,17.83
2018-10-16T04:47:45.899Z,16.63
2018-10-16T04:50:15.242Z,23.40
2018-10-16T04:52:45.661Z,23.20
2018-10-16T04:55:15.660Z,22.80
2018-10-16T04:57:45.689Z,18.63
2018-10-16T05:00:16.129Z,19.30
2018-10-16T05:02:45.995Z,18.87
2018-10-16T05:05:22.648Z,19.30
2018-10-16T05:07:52.688Z,23.20
2018-10-16T05:10:22.285Z,21.13
2018-10-16T05:12:52.259Z,21.07
2018-10-16T05:15:28.123Z,19.17
2018-10-16T05:17:58.501Z,21.57
2018-10-16T05:20:28.087Z,18.33
2018-10-16T05:22:58.836Z,17.50
2018-10-16T05:25:29.678Z,17.87
2018-10-16T05:27:59.242Z,17.97
2018-10-16T05:30:30.074Z,18.80
2018-10-16T05:32:59.332Z,20.90
2018-10-16T05:35:28.552Z,19.73
2018-10-16T05:37:59.457Z,21.37
2018-10-16T05:40:29.332Z,19.70
2018-10-16T05:42:59.744Z,20.90
2018-10-16T05:45:31.254Z,17.37
2018-10-16T05:48:00.978Z,23.30
2018-10-16T05:50:30.384Z,18.97
2018-10-16T05:52:59.666Z,18.33
2018-10-16T05:55:29.168Z,20.73
2018-10-16T05:57:59.553Z,21.83
2018-10-16T06:00:38.305Z,18.60
2018-10-16T06:03:07.584Z,19.27
2018-10-16T06:05:38.498Z,17.83
2018-10-16T06:08:08.127Z,21.07
2018-10-16T06:10:38.385Z,23.60
2018-10-16T06:15:42.556Z,29.73
2018-10-16T06:18:12.285Z,18.30
2018-10-16T06:20:42.384Z,17.30
2018-10-16T06:23:12.007Z,20.47
2018-10-16T06:25:41.472Z,17.70
2018-10-16T06:28:21.222Z,15.53
2018-10-16T06:30:51.292Z,13.20
2018-10-16T06:33:24.198Z,13.97
2018-10-16T06:35:53.271Z,17.97
2018-10-16T06:38:22.790Z,11.53
2018-10-16T06:40:52.491Z,11.90
2018-10-16T06:43:23.109Z,16.47
2018-10-16T06:45:52.935Z,13.70
2018-10-16T06:48:22.303Z,13.50
2018-10-16T06:50:51.229Z,11.53
2018-10-16T06:53:20.424Z,11.90
2018-10-16T06:55:49.560Z,12.90
2018-10-16T06:58:18.642Z,12.27
2018-10-16T07:00:47.838Z,11.43
2018-10-16T07:03:16.964Z,15.70
2018-10-16T07:05:46.263Z,13.13
2018-10-16T07:08:15.376Z,11.40
2018-10-16T07:10:44.517Z,14.20
2018-10-16T07:13:14.385Z,16.17
2018-10-16T07:15:43.997Z,12.10
2018-10-16T07:18:13.233Z,12.40
2018-10-16T07:20:42.589Z,12.30
2018-10-16T07:23:11.689Z,13.20
2018-10-16T07:25:40.809Z,14.80
2018-10-16T07:28:10.081Z,12.47
2018-10-16T07:30:39.299Z,10.77
2018-10-16T07:33:08.558Z,16.60
2018-10-16T07:35:37.697Z,13.93
2018-10-16T07:38:07.038Z,12.70
2018-10-16T07:40:37.064Z,12.40
2018-10-16T07:43:06.341Z,17.90
2018-10-16T07:45:35.771Z,14.40
2018-10-16T07:48:05.397Z,13.13
2018-10-16T07:50:34.786Z,16.37
2018-10-16T07:53:03.946Z,11.13
2018-10-16T07:55:33.285Z,16.83
2018-10-16T07:58:03.734Z,27.97
2018-10-16T08:00:32.857Z,14.93
2018-10-16T08:03:02.201Z,14.90
2018-10-16T08:05:31.457Z,16.73
2018-10-16T08:08:00.553Z,19.30
2018-10-16T08:10:29.639Z,12.43
2018-10-16T08:12:58.877Z,14.40
2018-10-16T08:15:28.105Z,18.47
2018-10-16T08:17:57.360Z,13.93
2018-10-16T08:20:26.567Z,13.33
2018-10-16T08:22:55.657Z,14.70
2018-10-16T08:25:24.779Z,16.33
2018-10-16T08:27:53.899Z,15.17
2018-10-16T08:30:23.453Z,16.00
2018-10-16T08:32:53.222Z,16.87
2018-10-16T08:35:23.136Z,17.50
2018-10-16T08:38:02.063Z,15.13
2018-10-16T08:40:31.397Z,16.23
2018-10-16T08:43:30.446Z,15.30
2018-10-16T08:46:11.067Z,18.03
2018-10-16T08:55:39.323Z,22.20
2018-10-16T08:58:08.403Z,18.93
2018-10-16T09:00:37.542Z,14.90
2018-10-16T09:03:06.797Z,14.37
2018-10-16T09:05:35.890Z,14.87
2018-10-16T09:08:05.190Z,12.90
2018-10-16T09:10:34.287Z,14.83
2018-10-16T09:13:03.838Z,13.70
2018-10-16T09:15:32.913Z,13.10
2018-10-16T09:18:03.574Z,13.00
2018-10-16T09:20:32.776Z,14.20
2018-10-16T09:23:01.997Z,14.67
2018-10-16T09:25:31.206Z,19.17
2018-10-16T09:28:00.348Z,23.17
2018-10-16T09:30:29.653Z,14.40
2018-10-16T09:32:58.999Z,14.00
2018-10-16T09:35:28.256Z,12.77
2018-10-16T09:37:57.382Z,12.70
2018-10-16T09:40:26.514Z,12.17
2018-10-16T09:42:55.563Z,13.70
2018-10-16T09:45:24.848Z,13.37
2018-10-16T09:47:54.647Z,12.27
2018-10-16T09:50:23.801Z,12.63
2018-10-16T09:52:52.929Z,14.20
2018-10-16T09:55:22.286Z,16.97
2018-10-16T09:57:51.441Z,12.23
2018-10-16T10:00:25.884Z,13.60
2018-10-16T10:02:54.995Z,13.57
2018-10-16T10:05:24.108Z,14.90
2018-10-16T10:07:53.382Z,12.70
2018-10-16T10:10:22.561Z,12.20
2018-10-16T10:12:52.533Z,12.47
2018-10-16T10:15:21.667Z,11.83
2018-10-16T10:17:50.868Z,14.57
2018-10-16T10:20:19.961Z,11.27
2018-10-16T10:22:49.682Z,15.03
2018-10-16T10:25:18.919Z,11.47
2018-10-16T10:27:48.692Z,12.00
2018-10-16T10:30:17.991Z,9.60
2018-10-16T10:32:47.096Z,9.87
2018-10-16T10:35:17.039Z,14.27
2018-10-16T10:37:46.681Z,12.17
2018-10-16T10:40:15.783Z,12.80
2018-10-16T10:42:45.437Z,10.27
2018-10-16T10:45:14.655Z,12.63
2018-10-16T10:47:43.794Z,9.00
2018-10-16T10:50:14.109Z,10.37
2018-10-16T10:52:43.281Z,9.30
2018-10-16T10:55:12.377Z,10.37
2018-10-16T10:57:41.847Z,12.43
2018-10-16T11:00:12.583Z,10.50
2018-10-16T11:02:42.949Z,9.70
2018-10-16T11:05:12.328Z,9.80
2018-10-16T11:07:41.556Z,10.10
2018-10-16T11:10:12.443Z,12.93
2018-10-16T11:12:42.622Z,11.23
2018-10-16T11:15:12.358Z,12.80
2018-10-16T11:17:41.654Z,10.53
2018-10-16T11:20:12.938Z,11.10
2018-10-16T11:22:42.617Z,10.70
2018-10-16T11:25:12.181Z,10.27
2018-10-16T11:27:42.060Z,11.40
2018-10-16T11:30:14.227Z,11.63
2018-10-16T11:32:43.664Z,10.00
2018-10-16T11:35:14.173Z,9.40
2018-10-16T11:37:44.248Z,9.67
2018-10-16T11:40:13.424Z,9.23
2018-10-16T11:42:42.988Z,11.73
2018-10-16T11:45:12.289Z,8.90
2018-10-16T11:47:42.328Z,11.73
2018-10-16T11:50:12.478Z,9.40
2018-10-16T11:52:41.802Z,9.70
2018-10-16T11:55:11.208Z,15.33
2018-10-16T11:57:41.084Z,8.67
2018-10-16T12:00:14.565Z,8.00
2018-10-16T12:02:43.930Z,9.53
2018-10-16T12:05:25.796Z,8.33
2018-10-16T12:07:55.062Z,12.13
2018-10-16T12:10:24.220Z,8.33
2018-10-16T12:12:53.414Z,8.67
2018-10-16T12:15:22.465Z,8.00
2018-10-16T12:18:10.497Z,10.13
2018-10-16T12:20:43.443Z,7.90
2018-10-16T12:23:12.661Z,9.37
2018-10-16T12:25:41.780Z,7.80
2018-10-16T12:28:12.175Z,7.00
2018-10-16T12:30:41.248Z,7.53
2018-10-16T12:33:11.146Z,7.47
2018-10-16T12:35:40.205Z,9.80
2018-10-16T12:38:09.320Z,6.57
2018-10-16T12:40:38.531Z,8.53
2018-10-16T12:43:08.187Z,6.90
2018-10-16T12:45:37.366Z,6.67
2018-10-16T12:48:06.732Z,6.00
2018-10-16T12:50:35.845Z,8.80
2018-10-16T12:53:05.312Z,7.23
2018-10-16T12:55:34.520Z,7.43
2018-10-16T12:58:03.769Z,6.53
2018-10-16T13:00:32.879Z,9.93
2018-10-16T13:03:02.060Z,6.50
2018-10-16T13:05:31.198Z,8.17
2018-10-16T13:08:00.617Z,5.80
2018-10-16T13:10:30.246Z,6.03
2018-10-16T13:12:59.598Z,7.83
2018-10-16T13:15:28.752Z,6.70
2018-10-16T13:17:57.890Z,6.90
2018-10-16T13:20:27.741Z,6.17
2018-10-16T13:22:57.010Z,6.70
2018-10-16T13:25:26.212Z,7.20
2018-10-16T13:27:55.395Z,6.43
2018-10-16T13:30:25.204Z,9.53
2018-10-16T13:32:54.432Z,7.20
2018-10-16T13:35:24.656Z,6.43
2018-10-16T13:37:53.872Z,8.37
2018-10-16T13:40:22.928Z,5.63
2018-10-16T13:42:52.751Z,8.03
2018-10-16T13:45:21.916Z,8.93
2018-10-16T13:47:51.077Z,7.97
2018-10-16T13:50:20.522Z,6.33
2018-10-16T13:52:49.778Z,7.40
2018-10-16T13:55:20.000Z,8.57
2018-10-16T13:57:49.182Z,8.87
2018-10-16T14:00:20.044Z,6.20
2018-10-16T14:02:50.653Z,7.10
2018-10-16T14:05:19.737Z,6.40
2018-10-16T14:07:48.883Z,8.67
2018-10-16T14:10:18.968Z,6.30
2018-10-16T14:12:48.872Z,6.40
2018-10-16T14:15:19.440Z,6.40
2018-10-16T14:17:49.231Z,8.30
2018-10-16T14:20:19.233Z,5.83
2018-10-16T14:22:49.611Z,7.13
2018-10-16T14:25:18.794Z,6.30
2018-10-16T14:27:48.107Z,5.57
2018-10-16T14:30:17.378Z,9.90
2018-10-16T14:32:46.566Z,6.10
2018-10-16T14:35:16.433Z,7.00
2018-10-16T14:37:46.245Z,10.00
2018-10-16T14:40:16.828Z,6.40
2018-10-16T14:42:46.500Z,9.17
2018-10-16T14:45:15.587Z,7.03
2018-10-16T14:47:44.875Z,7.00
2018-10-16T14:50:14.801Z,8.00
2018-10-16T14:52:44.086Z,6.73
2018-10-16T14:55:13.150Z,6.60
2018-10-16T14:57:42.416Z,7.77
2018-10-16T15:00:12.840Z,7.00
2018-10-16T15:02:42.117Z,7.53
2018-10-16T15:05:12.633Z,7.40
2018-10-16T15:07:42.058Z,7.10
2018-10-16T15:10:11.494Z,7.20
2018-10-16T15:12:40.626Z,6.50
2018-10-16T15:15:10.067Z,8.03
2018-10-16T15:17:39.156Z,7.40
2018-10-16T15:20:10.532Z,5.90
2018-10-16T15:22:39.660Z,6.30
2018-10-16T15:25:09.747Z,6.90
2018-10-16T15:27:38.885Z,7.70
2018-10-16T15:30:09.375Z,7.30
2018-10-16T15:32:40.451Z,7.73
2018-10-16T15:35:10.828Z,9.90
2018-10-16T15:37:40.182Z,6.43
2018-10-16T15:40:10.773Z,7.53
2018-10-16T15:42:40.334Z,6.50
2018-10-16T15:45:11.511Z,11.93
2018-10-16T15:47:41.394Z,7.17
2018-10-16T15:50:11.418Z,8.03
2018-10-16T15:52:40.713Z,7.87
2018-10-16T15:55:11.145Z,13.50
2018-10-16T15:57:40.334Z,7.00
2018-10-16T16:00:14.817Z,7.00
2018-10-16T16:02:44.533Z,9.23
2018-10-16T16:05:13.685Z,7.40
2018-10-16T16:07:43.450Z,12.47
2018-10-16T16:10:14.590Z,13.37
2018-10-16T16:12:43.991Z,9.87
2018-10-16T16:15:13.821Z,11.40
2018-10-16T16:17:43.568Z,12.23
2018-10-16T16:20:14.702Z,8.83
2018-10-16T16:22:44.027Z,12.63
2018-10-16T16:25:14.925Z,8.93
2018-10-16T16:27:44.169Z,9.27
2018-10-16T16:30:15.890Z,8.63
2018-10-16T16:32:45.209Z,9.63
2018-10-16T16:35:14.456Z,10.47
2018-10-16T16:37:43.723Z,12.10
2018-10-16T16:40:14.134Z,8.70
2018-10-16T16:42:43.441Z,8.97
2018-10-16T16:45:12.956Z,11.73
2018-10-16T16:47:42.193Z,7.43
2018-10-16T16:50:12.911Z,7.67
2018-10-16T16:52:42.528Z,9.40
2018-10-16T16:55:13.345Z,9.57
2018-10-16T16:57:42.686Z,9.33
2018-10-16T17:00:12.985Z,10.60
2018-10-16T17:02:43.944Z,10.10
2018-10-16T17:05:13.537Z,7.13
2018-10-16T17:07:43.268Z,8.87
2018-10-16T17:10:12.555Z,13.73
2018-10-16T17:12:41.905Z,14.13
2018-10-16T17:15:15.756Z,8.30
2018-10-16T17:17:45.992Z,8.70
2018-10-16T17:20:15.002Z,18.83
2018-10-16T17:22:44.094Z,8.23
2018-10-16T17:25:14.563Z,11.07
2018-10-16T17:27:44.645Z,8.70
2018-10-16T17:30:15.699Z,10.13
2018-10-16T17:32:45.726Z,9.63
2018-10-16T17:35:15.335Z,9.53
2018-10-16T17:37:44.495Z,10.27
2018-10-16T17:40:14.969Z,9.10
2018-10-16T17:42:44.441Z,12.63
2018-10-16T17:45:15.693Z,11.20
2018-10-16T17:47:44.742Z,10.63
2018-10-16T17:50:15.770Z,7.63
2018-10-16T17:52:44.920Z,9.93
2018-10-16T17:55:14.830Z,9.93
2018-10-16T17:57:44.150Z,8.73
2018-10-16T18:00:18.241Z,9.73
2018-10-16T18:02:47.948Z,11.73
2018-10-16T18:05:17.328Z,9.43
2018-10-16T18:07:46.736Z,12.80
2018-10-16T18:10:16.479Z,12.77
2018-10-16T18:12:45.820Z,19.80
2018-10-16T18:15:15.456Z,20.33
2018-10-16T18:17:44.842Z,11.47
2018-10-16T18:20:16.014Z,12.60
2018-10-16T18:22:45.905Z,11.90
2018-10-16T18:25:15.112Z,18.93
2018-10-16T18:27:45.138Z,18.47
2018-10-16T18:30:14.552Z,15.77
2018-10-16T18:32:43.790Z,19.80
2018-10-16T18:35:13.517Z,11.50
2018-10-16T18:37:43.513Z,15.80
2018-10-16T18:40:13.197Z,9.17
2018-10-16T18:42:42.695Z,19.30
2018-10-16T18:45:13.678Z,11.73
2018-10-16T18:47:42.365Z,19.20
2018-10-16T18:50:13.434Z,9.17
2018-10-16T18:52:43.060Z,9.07
2018-10-16T18:55:13.434Z,11.97
2018-10-16T18:57:42.505Z,11.80
2018-10-16T19:00:16.057Z,12.87
2018-10-16T19:02:46.480Z,13.80
2018-10-16T19:05:15.623Z,12.43
2018-10-16T19:07:44.771Z,14.20
2018-10-16T19:10:13.945Z,13.60
2018-10-16T19:12:43.327Z,12.90
2018-10-16T19:15:13.849Z,18.03
2018-10-16T19:17:43.888Z,14.10
2018-10-16T19:20:14.183Z,17.10
2018-10-16T19:22:44.068Z,17.80
2018-10-16T19:25:14.948Z,14.10
2018-10-16T19:27:44.784Z,15.40
2018-10-16T19:30:13.921Z,14.37
2018-10-16T19:32:43.103Z,13.77
2018-10-16T19:35:14.265Z,14.33
2018-10-16T19:37:43.499Z,19.37
2018-10-16T19:40:12.890Z,18.13
2018-10-16T19:42:41.984Z,14.40
2018-10-16T19:45:11.367Z,15.80
2018-10-16T19:47:41.225Z,13.40
2018-10-16T19:50:11.033Z,15.97
2018-10-16T19:52:40.508Z,17.90
2018-10-16T19:55:09.729Z,16.73
2018-10-16T19:57:39.015Z,18.60
2018-10-16T20:00:09.355Z,14.23
2018-10-16T20:02:38.644Z,21.07
2018-10-16T20:05:08.488Z,14.63
2018-10-16T20:07:37.962Z,15.70
2018-10-16T20:10:08.515Z,14.43
2018-10-16T20:12:37.606Z,12.83
2018-10-16T20:15:08.358Z,16.17
2018-10-16T20:17:37.461Z,14.67
2018-10-16T20:20:07.891Z,13.93
2018-10-16T20:22:37.028Z,11.30
2018-10-16T20:25:07.316Z,9.63
2018-10-16T20:27:36.501Z,9.90
2018-10-16T20:30:06.988Z,11.67
2018-10-16T20:32:36.279Z,9.40
2018-10-16T20:35:05.772Z,14.43
2018-10-16T20:37:35.182Z,11.90
2018-10-16T20:40:04.346Z,12.33
2018-10-16T20:42:33.550Z,11.33
2018-10-16T20:45:02.685Z,14.20
2018-10-16T20:47:31.896Z,11.60
2018-10-16T20:50:01.035Z,14.70
2018-10-16T20:52:30.213Z,13.00
2018-10-16T20:54:59.386Z,12.30
2018-10-16T20:57:28.506Z,12.40
2018-10-16T20:59:58.081Z,12.23
2018-10-16T21:02:27.833Z,13.73
2018-10-16T21:04:58.029Z,12.10
2018-10-16T21:07:27.799Z,11.67
2018-10-16T21:09:56.834Z,11.63
2018-10-16T21:12:26.728Z,12.17
2018-10-16T21:14:55.848Z,14.80
2018-10-16T21:17:24.985Z,15.77
2018-10-16T21:19:54.124Z,15.17
2018-10-16T21:22:23.844Z,17.90
2018-10-16T21:24:53.691Z,15.60
2018-10-16T21:27:22.821Z,15.13
2018-10-16T21:29:52.010Z,16.47
2018-10-16T21:32:21.845Z,17.27
2018-10-16T21:34:52.622Z,18.87
2018-10-16T21:37:21.852Z,17.33
2018-10-16T21:39:51.911Z,22.27
2018-10-16T21:42:20.647Z,16.90
2018-10-16T21:44:49.644Z,16.53
2018-10-16T21:47:18.834Z,21.07
2018-10-16T21:49:48.137Z,16.47
2018-10-16T21:52:17.272Z,17.20
2018-10-16T21:54:46.528Z,16.73
2018-10-16T21:57:16.409Z,21.17
2018-10-16T21:59:46.290Z,17.43
2018-10-16T22:02:20.633Z,19.60
2018-10-16T22:04:50.668Z,17.70
2018-10-16T22:07:19.904Z,19.60
2018-10-16T22:09:49.128Z,18.37
2018-10-16T22:12:18.282Z,14.20
2018-10-16T22:14:47.488Z,16.50
2018-10-16T22:17:16.723Z,15.40
2018-10-16T22:19:45.901Z,15.20
2018-10-16T22:22:15.664Z,16.77
2018-10-16T22:24:44.835Z,15.63
2018-10-16T22:27:14.567Z,19.33
2018-10-16T22:29:43.884Z,17.30
2018-10-16T22:32:13.309Z,18.03
2018-10-16T22:34:42.374Z,15.17
2018-10-16T22:37:12.189Z,14.30
2018-10-16T22:39:41.241Z,16.27
2018-10-16T22:42:10.380Z,13.70
2018-10-16T22:44:39.496Z,17.67
2018-10-16T22:47:08.786Z,13.67
2018-10-16T22:49:37.977Z,14.13
2018-10-16T22:52:07.770Z,20.07
2018-10-16T22:54:36.910Z,15.63
2018-10-16T22:57:06.616Z,12.87
2018-10-16T22:59:35.988Z,17.53
2018-10-16T23:02:06.977Z,19.13
2018-10-16T23:04:36.726Z,16.30
2018-10-16T23:07:06.144Z,15.03
2018-10-16T23:09:35.777Z,16.50
2018-10-16T23:12:05.695Z,19.83
2018-10-16T23:14:34.919Z,14.27
2018-10-16T23:17:04.182Z,15.70
2018-10-16T23:19:33.586Z,15.63
2018-10-16T23:22:02.825Z,15.43
2018-10-16T23:24:31.981Z,13.13
2018-10-16T23:27:01.597Z,15.33
2018-10-16T23:29:30.825Z,14.73
2018-10-16T23:31:59.910Z,15.63
2018-10-16T23:34:29.960Z,16.57
2018-10-16T23:36:59.129Z,16.77
2018-10-16T23:39:28.681Z,20.60
2018-10-16T23:41:57.766Z,16.33
2018-10-16T23:44:27.095Z,15.60
2018-10-16T23:46:56.270Z,23.47
2018-10-16T23:49:25.407Z,21.20
2018-10-16T23:51:54.474Z,19.20
2018-10-16T23:54:23.708Z,24.93
2018-10-16T23:56:52.777Z,17.00
2018-10-16T23:59:21.948Z,17.93
